sensor_id;sensor_type;location;lat;lon;timestamp;P1;durP1;ratioP1;P2;durP2;ratioP2
75890;SDS011;64571;47.512;19.054;2023-12-22T00:02:35;9.77;;;4.37;;
75890;SDS011;64571;47.512;19.054;2023-12-22T00:05:37;10.15;;;4.25;;
75890;SDS011;64571;47.512;19.054;2023-12-22T00:08:40;12.20;;;5.93;;
75890;SDS011;64571;47.512;19.054;2023-12-22T00:11:43;10.65;;;5.20;;
75890;SDS011;64571;47.512;19.054;2023-12-22T00:14:46;8.82;;;4.53;;
75890;SDS011;64571;47.512;19.054;2023-12-22T00:17:48;8.30;;;3.40;;
75890;SDS011;64571;47.512;19.054;2023-12-22T00:20:51;11.25;;;4.65;;
75890;SDS011;64571;47.512;19.054;2023-12-22T00:23:54;12.45;;;4.72;;
75890;SDS011;64571;47.512;19.054;2023-12-22T00:26:57;8.30;;;3.87;;
75890;SDS011;64571;47.512;19.054;2023-12-22T00:29:59;10.77;;;4.72;;
75890;SDS011;64571;47.512;19.054;2023-12-22T00:33:02;9.13;;;4.27;;
75890;SDS011;64571;47.512;19.054;2023-12-22T00:36:05;10.57;;;5.18;;
75890;SDS011;64571;47.512;19.054;2023-12-22T00:39:07;11.32;;;4.80;;
75890;SDS011;64571;47.512;19.054;2023-12-22T00:42:11;12.13;;;5.65;;
75890;SDS011;64571;47.512;19.054;2023-12-22T00:45:13;12.40;;;6.62;;
75890;SDS011;64571;47.512;19.054;2023-12-22T00:48:16;12.83;;;5.97;;
75890;SDS011;64571;47.512;19.054;2023-12-22T00:51:18;10.02;;;5.00;;
75890;SDS011;64571;47.512;19.054;2023-12-22T00:54:21;12.57;;;6.12;;
75890;SDS011;64571;47.512;19.054;2023-12-22T00:57:24;8.40;;;3.53;;
75890;SDS011;64571;47.512;19.054;2023-12-22T01:00:26;9.68;;;4.10;;
75890;SDS011;64571;47.512;19.054;2023-12-22T01:03:29;11.40;;;6.07;;
75890;SDS011;64571;47.512;19.054;2023-12-22T01:06:32;10.02;;;4.82;;
75890;SDS011;64571;47.512;19.054;2023-12-22T01:09:38;8.65;;;4.20;;
75890;SDS011;64571;47.512;19.054;2023-12-22T01:12:41;10.07;;;3.97;;
75890;SDS011;64571;47.512;19.054;2023-12-22T01:15:44;10.15;;;4.10;;
75890;SDS011;64571;47.512;19.054;2023-12-22T01:18:47;8.77;;;4.20;;
75890;SDS011;64571;47.512;19.054;2023-12-22T01:21:49;9.20;;;4.35;;
75890;SDS011;64571;47.512;19.054;2023-12-22T01:24:54;8.50;;;3.30;;
75890;SDS011;64571;47.512;19.054;2023-12-22T01:27:56;8.13;;;3.58;;
75890;SDS011;64571;47.512;19.054;2023-12-22T01:30:59;9.10;;;4.28;;
75890;SDS011;64571;47.512;19.054;2023-12-22T01:34:02;7.97;;;3.43;;
75890;SDS011;64571;47.512;19.054;2023-12-22T01:37:05;6.85;;;2.95;;
75890;SDS011;64571;47.512;19.054;2023-12-22T01:40:07;8.55;;;3.05;;
75890;SDS011;64571;47.512;19.054;2023-12-22T01:43:10;7.90;;;3.70;;
75890;SDS011;64571;47.512;19.054;2023-12-22T01:46:13;6.20;;;2.35;;
75890;SDS011;64571;47.512;19.054;2023-12-22T01:49:15;8.00;;;2.73;;
75890;SDS011;64571;47.512;19.054;2023-12-22T01:52:19;5.03;;;1.48;;
75890;SDS011;64571;47.512;19.054;2023-12-22T01:55:22;5.70;;;1.75;;
75890;SDS011;64571;47.512;19.054;2023-12-22T01:58:24;7.78;;;1.73;;
75890;SDS011;64571;47.512;19.054;2023-12-22T02:01:30;3.85;;;1.00;;
75890;SDS011;64571;47.512;19.054;2023-12-22T02:04:34;5.57;;;2.03;;
75890;SDS011;64571;47.512;19.054;2023-12-22T02:07:40;4.97;;;1.55;;
75890;SDS011;64571;47.512;19.054;2023-12-22T02:10:44;5.68;;;1.50;;
75890;SDS011;64571;47.512;19.054;2023-12-22T02:13:47;3.58;;;0.90;;
75890;SDS011;64571;47.512;19.054;2023-12-22T02:17:07;4.55;;;1.60;;
75890;SDS011;64571;47.512;19.054;2023-12-22T02:20:17;3.93;;;1.10;;
75890;SDS011;64571;47.512;19.054;2023-12-22T02:23:22;5.05;;;1.10;;
75890;SDS011;64571;47.512;19.054;2023-12-22T02:26:38;3.70;;;1.00;;
75890;SDS011;64571;47.512;19.054;2023-12-22T02:29:48;3.30;;;0.60;;
75890;SDS011;64571;47.512;19.054;2023-12-22T02:32:59;4.35;;;0.62;;
75890;SDS011;64571;47.512;19.054;2023-12-22T02:36:03;2.93;;;0.63;;
75890;SDS011;64571;47.512;19.054;2023-12-22T02:39:08;4.15;;;0.93;;
75890;SDS011;64571;47.512;19.054;2023-12-22T02:42:13;3.47;;;0.70;;
75890;SDS011;64571;47.512;19.054;2023-12-22T02:45:17;2.75;;;0.70;;
75890;SDS011;64571;47.512;19.054;2023-12-22T02:48:21;4.15;;;0.90;;
75890;SDS011;64571;47.512;19.054;2023-12-22T02:51:23;3.70;;;0.70;;
75890;SDS011;64571;47.512;19.054;2023-12-22T02:54:26;4.05;;;1.10;;
75890;SDS011;64571;47.512;19.054;2023-12-22T02:57:31;4.65;;;1.17;;
75890;SDS011;64571;47.512;19.054;2023-12-22T03:00:34;4.10;;;1.20;;
75890;SDS011;64571;47.512;19.054;2023-12-22T03:03:37;4.25;;;1.23;;
75890;SDS011;64571;47.512;19.054;2023-12-22T03:06:39;4.43;;;1.50;;
75890;SDS011;64571;47.512;19.054;2023-12-22T03:09:42;4.25;;;1.20;;
75890;SDS011;64571;47.512;19.054;2023-12-22T03:12:45;3.62;;;0.77;;
75890;SDS011;64571;47.512;19.054;2023-12-22T03:15:47;3.22;;;0.90;;
75890;SDS011;64571;47.512;19.054;2023-12-22T03:18:50;4.55;;;1.30;;
75890;SDS011;64571;47.512;19.054;2023-12-22T03:21:53;3.87;;;0.90;;
75890;SDS011;64571;47.512;19.054;2023-12-22T03:24:55;4.30;;;1.10;;
75890;SDS011;64571;47.512;19.054;2023-12-22T03:27:58;4.55;;;0.60;;
75890;SDS011;64571;47.512;19.054;2023-12-22T03:31:01;3.17;;;0.90;;
75890;SDS011;64571;47.512;19.054;2023-12-22T03:34:03;1.37;;;0.22;;
75890;SDS011;64571;47.512;19.054;2023-12-22T03:37:06;2.60;;;0.57;;
75890;SDS011;64571;47.512;19.054;2023-12-22T03:40:08;2.62;;;0.70;;
75890;SDS011;64571;47.512;19.054;2023-12-22T03:43:12;2.22;;;0.47;;
75890;SDS011;64571;47.512;19.054;2023-12-22T03:46:14;2.33;;;0.40;;
75890;SDS011;64571;47.512;19.054;2023-12-22T03:49:17;2.33;;;0.32;;
75890;SDS011;64571;47.512;19.054;2023-12-22T03:52:21;2.73;;;0.50;;
75890;SDS011;64571;47.512;19.054;2023-12-22T03:55:24;2.28;;;0.50;;
75890;SDS011;64571;47.512;19.054;2023-12-22T03:58:27;2.60;;;0.77;;
75890;SDS011;64571;47.512;19.054;2023-12-22T04:01:32;2.17;;;0.47;;
75890;SDS011;64571;47.512;19.054;2023-12-22T04:04:38;2.08;;;0.35;;
75890;SDS011;64571;47.512;19.054;2023-12-22T04:07:41;2.13;;;0.47;;
75890;SDS011;64571;47.512;19.054;2023-12-22T04:10:43;3.12;;;0.45;;
75890;SDS011;64571;47.512;19.054;2023-12-22T04:13:46;3.20;;;0.50;;
75890;SDS011;64571;47.512;19.054;2023-12-22T04:16:49;1.80;;;0.30;;
75890;SDS011;64571;47.512;19.054;2023-12-22T04:19:54;1.92;;;0.40;;
75890;SDS011;64571;47.512;19.054;2023-12-22T04:22:57;3.30;;;0.50;;
75890;SDS011;64571;47.512;19.054;2023-12-22T04:26:00;6.78;;;0.43;;
75890;SDS011;64571;47.512;19.054;2023-12-22T04:29:04;2.78;;;0.73;;
75890;SDS011;64571;47.512;19.054;2023-12-22T04:32:07;2.28;;;0.47;;
75890;SDS011;64571;47.512;19.054;2023-12-22T04:35:09;2.00;;;0.40;;
75890;SDS011;64571;47.512;19.054;2023-12-22T04:38:12;2.03;;;0.50;;
75890;SDS011;64571;47.512;19.054;2023-12-22T04:41:15;3.47;;;0.60;;
75890;SDS011;64571;47.512;19.054;2023-12-22T04:44:17;2.15;;;0.40;;
75890;SDS011;64571;47.512;19.054;2023-12-22T04:47:20;3.20;;;0.57;;
75890;SDS011;64571;47.512;19.054;2023-12-22T04:50:22;4.43;;;0.75;;
75890;SDS011;64571;47.512;19.054;2023-12-22T04:53:25;3.33;;;0.40;;
75890;SDS011;64571;47.512;19.054;2023-12-22T04:56:28;2.58;;;0.40;;
75890;SDS011;64571;47.512;19.054;2023-12-22T04:59:30;3.53;;;0.70;;
75890;SDS011;64571;47.512;19.054;2023-12-22T05:02:33;2.97;;;0.60;;
75890;SDS011;64571;47.512;19.054;2023-12-22T05:05:36;7.37;;;0.70;;
75890;SDS011;64571;47.512;19.054;2023-12-22T05:08:38;2.30;;;0.50;;
75890;SDS011;64571;47.512;19.054;2023-12-22T05:11:41;4.82;;;0.50;;
75890;SDS011;64571;47.512;19.054;2023-12-22T05:14:43;2.95;;;0.77;;
75890;SDS011;64571;47.512;19.054;2023-12-22T05:17:47;3.25;;;1.08;;
75890;SDS011;64571;47.512;19.054;2023-12-22T05:20:49;5.90;;;1.10;;
75890;SDS011;64571;47.512;19.054;2023-12-22T05:23:54;3.13;;;0.47;;
75890;SDS011;64571;47.512;19.054;2023-12-22T05:26:56;3.92;;;0.62;;
75890;SDS011;64571;47.512;19.054;2023-12-22T05:29:59;4.55;;;0.40;;
75890;SDS011;64571;47.512;19.054;2023-12-22T05:33:03;4.25;;;1.00;;
75890;SDS011;64571;47.512;19.054;2023-12-22T05:36:06;2.17;;;0.45;;
75890;SDS011;64571;47.512;19.054;2023-12-22T05:39:09;4.87;;;0.70;;
75890;SDS011;64571;47.512;19.054;2023-12-22T05:42:12;4.40;;;0.50;;
75890;SDS011;64571;47.512;19.054;2023-12-22T05:45:15;3.08;;;0.52;;
75890;SDS011;64571;47.512;19.054;2023-12-22T05:48:18;3.80;;;0.50;;
75890;SDS011;64571;47.512;19.054;2023-12-22T05:51:24;4.62;;;1.10;;
75890;SDS011;64571;47.512;19.054;2023-12-22T05:54:26;6.30;;;0.63;;
75890;SDS011;64571;47.512;19.054;2023-12-22T05:57:29;2.12;;;0.50;;
75890;SDS011;64571;47.512;19.054;2023-12-22T06:00:31;4.53;;;0.85;;
75890;SDS011;64571;47.512;19.054;2023-12-22T06:03:35;3.33;;;0.60;;
75890;SDS011;64571;47.512;19.054;2023-12-22T06:06:37;4.97;;;0.68;;
75890;SDS011;64571;47.512;19.054;2023-12-22T06:09:40;3.30;;;0.50;;
75890;SDS011;64571;47.512;19.054;2023-12-22T06:12:43;2.72;;;0.35;;
75890;SDS011;64571;47.512;19.054;2023-12-22T06:15:46;2.58;;;0.40;;
75890;SDS011;64571;47.512;19.054;2023-12-22T06:18:48;5.70;;;1.10;;
75890;SDS011;64571;47.512;19.054;2023-12-22T06:21:51;1.85;;;0.40;;
75890;SDS011;64571;47.512;19.054;2023-12-22T06:24:53;5.50;;;0.70;;
75890;SDS011;64571;47.512;19.054;2023-12-22T06:27:56;5.22;;;0.60;;
75890;SDS011;64571;47.512;19.054;2023-12-22T06:30:59;3.92;;;0.45;;
75890;SDS011;64571;47.512;19.054;2023-12-22T06:34:01;3.33;;;0.60;;
75890;SDS011;64571;47.512;19.054;2023-12-22T06:37:05;2.60;;;0.50;;
75890;SDS011;64571;47.512;19.054;2023-12-22T06:40:10;6.60;;;0.93;;
75890;SDS011;64571;47.512;19.054;2023-12-22T06:43:13;3.95;;;0.70;;
75890;SDS011;64571;47.512;19.054;2023-12-22T06:46:17;6.82;;;1.20;;
75890;SDS011;64571;47.512;19.054;2023-12-22T06:49:20;4.05;;;0.65;;
75890;SDS011;64571;47.512;19.054;2023-12-22T06:52:23;2.42;;;0.45;;
75890;SDS011;64571;47.512;19.054;2023-12-22T06:55:25;7.83;;;0.60;;
75890;SDS011;64571;47.512;19.054;2023-12-22T06:58:29;3.03;;;0.55;;
75890;SDS011;64571;47.512;19.054;2023-12-22T07:01:34;6.25;;;0.70;;
75890;SDS011;64571;47.512;19.054;2023-12-22T07:04:38;6.80;;;0.70;;
75890;SDS011;64571;47.512;19.054;2023-12-22T07:07:56;4.90;;;0.75;;
75890;SDS011;64571;47.512;19.054;2023-12-22T07:10:59;4.77;;;1.17;;
75890;SDS011;64571;47.512;19.054;2023-12-22T07:14:01;7.45;;;1.02;;
75890;SDS011;64571;47.512;19.054;2023-12-22T07:17:04;6.03;;;1.35;;
75890;SDS011;64571;47.512;19.054;2023-12-22T07:20:07;6.72;;;0.85;;
75890;SDS011;64571;47.512;19.054;2023-12-22T07:23:11;2.33;;;0.60;;
75890;SDS011;64571;47.512;19.054;2023-12-22T07:26:15;5.43;;;0.90;;
75890;SDS011;64571;47.512;19.054;2023-12-22T07:29:21;3.75;;;0.75;;
75890;SDS011;64571;47.512;19.054;2023-12-22T07:32:26;6.57;;;0.57;;
75890;SDS011;64571;47.512;19.054;2023-12-22T07:35:30;5.87;;;1.10;;
75890;SDS011;64571;47.512;19.054;2023-12-22T07:38:32;4.12;;;0.95;;
75890;SDS011;64571;47.512;19.054;2023-12-22T07:41:35;4.03;;;0.63;;
75890;SDS011;64571;47.512;19.054;2023-12-22T07:44:39;8.40;;;1.00;;
75890;SDS011;64571;47.512;19.054;2023-12-22T07:47:42;4.40;;;0.90;;
75890;SDS011;64571;47.512;19.054;2023-12-22T07:50:45;7.35;;;1.12;;
75890;SDS011;64571;47.512;19.054;2023-12-22T07:53:48;7.70;;;0.80;;
75890;SDS011;64571;47.512;19.054;2023-12-22T07:56:50;9.60;;;1.20;;
75890;SDS011;64571;47.512;19.054;2023-12-22T07:59:53;4.03;;;0.70;;
75890;SDS011;64571;47.512;19.054;2023-12-22T08:02:56;5.72;;;1.00;;
75890;SDS011;64571;47.512;19.054;2023-12-22T08:05:59;7.65;;;0.90;;
75890;SDS011;64571;47.512;19.054;2023-12-22T08:09:01;7.18;;;0.93;;
75890;SDS011;64571;47.512;19.054;2023-12-22T08:12:05;4.53;;;0.90;;
75890;SDS011;64571;47.512;19.054;2023-12-22T08:15:08;4.60;;;0.70;;
75890;SDS011;64571;47.512;19.054;2023-12-22T08:18:27;11.90;;;0.82;;
75890;SDS011;64571;47.512;19.054;2023-12-22T08:21:30;5.30;;;0.77;;
75890;SDS011;64571;47.512;19.054;2023-12-22T08:24:46;11.77;;;1.52;;
75890;SDS011;64571;47.512;19.054;2023-12-22T08:27:50;11.43;;;1.13;;
75890;SDS011;64571;47.512;19.054;2023-12-22T08:30:53;4.78;;;0.93;;
75890;SDS011;64571;47.512;19.054;2023-12-22T08:33:55;8.38;;;0.82;;
75890;SDS011;64571;47.512;19.054;2023-12-22T08:36:58;7.07;;;1.05;;
75890;SDS011;64571;47.512;19.054;2023-12-22T08:40:03;9.82;;;0.82;;
75890;SDS011;64571;47.512;19.054;2023-12-22T08:43:08;3.70;;;0.97;;
75890;SDS011;64571;47.512;19.054;2023-12-22T08:46:13;4.45;;;0.90;;
75890;SDS011;64571;47.512;19.054;2023-12-22T08:49:16;6.35;;;1.25;;
75890;SDS011;64571;47.512;19.054;2023-12-22T08:52:19;4.03;;;0.90;;
75890;SDS011;64571;47.512;19.054;2023-12-22T08:55:22;4.57;;;0.90;;
75890;SDS011;64571;47.512;19.054;2023-12-22T08:58:24;4.50;;;0.83;;
75890;SDS011;64571;47.512;19.054;2023-12-22T09:01:27;9.52;;;1.87;;
75890;SDS011;64571;47.512;19.054;2023-12-22T09:04:30;7.10;;;1.17;;
75890;SDS011;64571;47.512;19.054;2023-12-22T09:07:33;5.62;;;0.82;;
75890;SDS011;64571;47.512;19.054;2023-12-22T09:10:35;5.12;;;1.05;;
75890;SDS011;64571;47.512;19.054;2023-12-22T09:13:38;4.20;;;0.80;;
75890;SDS011;64571;47.512;19.054;2023-12-22T09:16:41;6.57;;;1.08;;
75890;SDS011;64571;47.512;19.054;2023-12-22T09:19:46;4.70;;;0.80;;
75890;SDS011;64571;47.512;19.054;2023-12-22T09:22:49;7.45;;;0.95;;
75890;SDS011;64571;47.512;19.054;2023-12-22T09:25:52;5.53;;;0.98;;
75890;SDS011;64571;47.512;19.054;2023-12-22T09:28:55;7.87;;;1.20;;
75890;SDS011;64571;47.512;19.054;2023-12-22T09:31:58;7.62;;;0.88;;
75890;SDS011;64571;47.512;19.054;2023-12-22T09:35:01;7.20;;;1.10;;
75890;SDS011;64571;47.512;19.054;2023-12-22T09:38:04;4.65;;;0.70;;
75890;SDS011;64571;47.512;19.054;2023-12-22T09:41:06;6.25;;;0.77;;
75890;SDS011;64571;47.512;19.054;2023-12-22T09:44:09;4.00;;;1.00;;
75890;SDS011;64571;47.512;19.054;2023-12-22T09:47:13;3.92;;;0.60;;
75890;SDS011;64571;47.512;19.054;2023-12-22T09:50:18;3.85;;;0.60;;
75890;SDS011;64571;47.512;19.054;2023-12-22T09:53:22;4.50;;;0.73;;
75890;SDS011;64571;47.512;19.054;2023-12-22T09:56:26;5.50;;;0.50;;
75890;SDS011;64571;47.512;19.054;2023-12-22T09:59:29;3.70;;;1.03;;
75890;SDS011;64571;47.512;19.054;2023-12-22T10:02:33;6.90;;;1.10;;
75890;SDS011;64571;47.512;19.054;2023-12-22T10:05:41;2.40;;;0.47;;
75890;SDS011;64571;47.512;19.054;2023-12-22T10:08:44;3.67;;;0.80;;
75890;SDS011;64571;47.512;19.054;2023-12-22T10:11:49;5.53;;;1.02;;
75890;SDS011;64571;47.512;19.054;2023-12-22T10:14:56;4.43;;;1.03;;
75890;SDS011;64571;47.512;19.054;2023-12-22T10:17:59;6.25;;;0.90;;
75890;SDS011;64571;47.512;19.054;2023-12-22T10:21:01;2.92;;;0.40;;
75890;SDS011;64571;47.512;19.054;2023-12-22T10:24:04;4.43;;;0.60;;
75890;SDS011;64571;47.512;19.054;2023-12-22T10:27:07;6.25;;;0.93;;
75890;SDS011;64571;47.512;19.054;2023-12-22T10:30:10;8.77;;;1.20;;
75890;SDS011;64571;47.512;19.054;2023-12-22T10:33:13;3.45;;;0.70;;
75890;SDS011;64571;47.512;19.054;2023-12-22T10:36:16;2.80;;;0.40;;
75890;SDS011;64571;47.512;19.054;2023-12-22T10:39:20;3.08;;;0.50;;
75890;SDS011;64571;47.512;19.054;2023-12-22T10:42:25;3.75;;;0.82;;
75890;SDS011;64571;47.512;19.054;2023-12-22T10:45:28;3.17;;;0.60;;
75890;SDS011;64571;47.512;19.054;2023-12-22T10:48:33;3.05;;;0.70;;
75890;SDS011;64571;47.512;19.054;2023-12-22T10:51:37;2.33;;;0.43;;
75890;SDS011;64571;47.512;19.054;2023-12-22T10:54:39;7.55;;;1.60;;
75890;SDS011;64571;47.512;19.054;2023-12-22T10:57:44;3.80;;;0.90;;
75890;SDS011;64571;47.512;19.054;2023-12-22T11:00:49;4.17;;;1.00;;
75890;SDS011;64571;47.512;19.054;2023-12-22T11:03:54;3.87;;;0.80;;
75890;SDS011;64571;47.512;19.054;2023-12-22T11:07:07;2.22;;;0.32;;
75890;SDS011;64571;47.512;19.054;2023-12-22T11:10:12;4.22;;;0.85;;
75890;SDS011;64571;47.512;19.054;2023-12-22T11:13:17;3.20;;;0.52;;
75890;SDS011;64571;47.512;19.054;2023-12-22T11:16:21;3.47;;;0.50;;
75890;SDS011;64571;47.512;19.054;2023-12-22T11:19:26;2.15;;;0.50;;
75890;SDS011;64571;47.512;19.054;2023-12-22T11:22:33;4.50;;;1.40;;
75890;SDS011;64571;47.512;19.054;2023-12-22T11:25:38;4.40;;;0.98;;
75890;SDS011;64571;47.512;19.054;2023-12-22T11:28:42;3.20;;;1.02;;
75890;SDS011;64571;47.512;19.054;2023-12-22T11:31:47;4.77;;;0.90;;
75890;SDS011;64571;47.512;19.054;2023-12-22T11:34:51;3.12;;;0.52;;
75890;SDS011;64571;47.512;19.054;2023-12-22T11:37:55;3.85;;;0.70;;
75890;SDS011;64571;47.512;19.054;2023-12-22T11:41:00;2.70;;;0.52;;
75890;SDS011;64571;47.512;19.054;2023-12-22T11:44:05;19.87;;;1.40;;
75890;SDS011;64571;47.512;19.054;2023-12-22T11:47:09;5.67;;;0.90;;
75890;SDS011;64571;47.512;19.054;2023-12-22T11:50:14;1.87;;;0.43;;
75890;SDS011;64571;47.512;19.054;2023-12-22T11:53:31;5.37;;;1.02;;
75890;SDS011;64571;47.512;19.054;2023-12-22T11:56:35;3.03;;;0.60;;
75890;SDS011;64571;47.512;19.054;2023-12-22T11:59:38;3.12;;;0.93;;
75890;SDS011;64571;47.512;19.054;2023-12-22T12:02:41;2.80;;;0.60;;
75890;SDS011;64571;47.512;19.054;2023-12-22T12:05:44;2.45;;;0.30;;
75890;SDS011;64571;47.512;19.054;2023-12-22T12:08:47;2.67;;;0.62;;
75890;SDS011;64571;47.512;19.054;2023-12-22T12:14:54;4.57;;;0.88;;
75890;SDS011;64571;47.512;19.054;2023-12-22T12:18:03;2.03;;;0.40;;
75890;SDS011;64571;47.512;19.054;2023-12-22T12:21:10;4.03;;;0.60;;
75890;SDS011;64571;47.512;19.054;2023-12-22T12:24:13;2.90;;;0.55;;
75890;SDS011;64571;47.512;19.054;2023-12-22T12:27:19;3.80;;;0.50;;
75890;SDS011;64571;47.512;19.054;2023-12-22T12:30:22;3.12;;;0.60;;
75890;SDS011;64571;47.512;19.054;2023-12-22T12:33:26;3.93;;;0.70;;
75890;SDS011;64571;47.512;19.054;2023-12-22T12:36:30;6.07;;;1.10;;
75890;SDS011;64571;47.512;19.054;2023-12-22T12:39:34;3.92;;;0.70;;
75890;SDS011;64571;47.512;19.054;2023-12-22T12:42:37;3.70;;;0.82;;
75890;SDS011;64571;47.512;19.054;2023-12-22T12:45:40;3.87;;;0.70;;
75890;SDS011;64571;47.512;19.054;2023-12-22T12:48:44;2.37;;;0.40;;
75890;SDS011;64571;47.512;19.054;2023-12-22T12:51:47;2.42;;;0.50;;
75890;SDS011;64571;47.512;19.054;2023-12-22T12:54:51;2.40;;;0.52;;
75890;SDS011;64571;47.512;19.054;2023-12-22T12:57:55;2.17;;;0.32;;
75890;SDS011;64571;47.512;19.054;2023-12-22T13:01:06;3.20;;;0.40;;
75890;SDS011;64571;47.512;19.054;2023-12-22T13:04:10;2.10;;;0.40;;
75890;SDS011;64571;47.512;19.054;2023-12-22T13:07:23;2.83;;;0.70;;
75890;SDS011;64571;47.512;19.054;2023-12-22T13:10:26;3.17;;;0.60;;
75890;SDS011;64571;47.512;19.054;2023-12-22T13:13:40;3.53;;;0.80;;
75890;SDS011;64571;47.512;19.054;2023-12-22T13:16:43;2.20;;;0.40;;
75890;SDS011;64571;47.512;19.054;2023-12-22T13:19:47;2.20;;;0.40;;
75890;SDS011;64571;47.512;19.054;2023-12-22T13:22:51;4.82;;;0.80;;
75890;SDS011;64571;47.512;19.054;2023-12-22T13:25:53;4.90;;;0.70;;
75890;SDS011;64571;47.512;19.054;2023-12-22T13:28:57;4.03;;;0.70;;
75890;SDS011;64571;47.512;19.054;2023-12-22T13:32:01;3.28;;;0.55;;
75890;SDS011;64571;47.512;19.054;2023-12-22T13:35:04;4.87;;;0.90;;
75890;SDS011;64571;47.512;19.054;2023-12-22T13:38:07;5.47;;;1.20;;
75890;SDS011;64571;47.512;19.054;2023-12-22T13:41:12;5.43;;;1.00;;
75890;SDS011;64571;47.512;19.054;2023-12-22T13:44:15;4.97;;;0.90;;
75890;SDS011;64571;47.512;19.054;2023-12-22T13:47:18;2.90;;;0.70;;
75890;SDS011;64571;47.512;19.054;2023-12-22T13:50:21;3.90;;;0.93;;
75890;SDS011;64571;47.512;19.054;2023-12-22T13:53:27;3.67;;;0.93;;
75890;SDS011;64571;47.512;19.054;2023-12-22T13:56:34;4.72;;;1.10;;
75890;SDS011;64571;47.512;19.054;2023-12-22T13:59:42;2.85;;;0.85;;
75890;SDS011;64571;47.512;19.054;2023-12-22T14:02:45;3.15;;;0.62;;
75890;SDS011;64571;47.512;19.054;2023-12-22T14:05:49;2.30;;;0.50;;
75890;SDS011;64571;47.512;19.054;2023-12-22T14:08:52;6.22;;;1.27;;
75890;SDS011;64571;47.512;19.054;2023-12-22T14:11:55;2.65;;;0.45;;
75890;SDS011;64571;47.512;19.054;2023-12-22T14:15:06;2.75;;;0.55;;
75890;SDS011;64571;47.512;19.054;2023-12-22T14:18:10;3.62;;;0.70;;
75890;SDS011;64571;47.512;19.054;2023-12-22T14:21:13;2.13;;;0.40;;
75890;SDS011;64571;47.512;19.054;2023-12-22T14:24:18;3.22;;;0.60;;
75890;SDS011;64571;47.512;19.054;2023-12-22T14:27:22;3.50;;;0.60;;
75890;SDS011;64571;47.512;19.054;2023-12-22T14:30:25;3.40;;;0.60;;
75890;SDS011;64571;47.512;19.054;2023-12-22T14:33:28;5.18;;;1.08;;
75890;SDS011;64571;47.512;19.054;2023-12-22T14:36:31;4.00;;;0.83;;
75890;SDS011;64571;47.512;19.054;2023-12-22T14:39:33;3.37;;;0.68;;
75890;SDS011;64571;47.512;19.054;2023-12-22T14:42:37;3.72;;;0.70;;
75890;SDS011;64571;47.512;19.054;2023-12-22T14:45:41;2.62;;;0.75;;
75890;SDS011;64571;47.512;19.054;2023-12-22T14:48:44;2.95;;;0.60;;
75890;SDS011;64571;47.512;19.054;2023-12-22T14:51:46;2.97;;;0.60;;
75890;SDS011;64571;47.512;19.054;2023-12-22T14:54:56;4.65;;;0.95;;
75890;SDS011;64571;47.512;19.054;2023-12-22T14:57:58;3.33;;;0.70;;
75890;SDS011;64571;47.512;19.054;2023-12-22T15:01:01;2.25;;;0.47;;
75890;SDS011;64571;47.512;19.054;2023-12-22T15:04:04;1.67;;;0.20;;
75890;SDS011;64571;47.512;19.054;2023-12-22T15:07:08;7.47;;;1.90;;
75890;SDS011;64571;47.512;19.054;2023-12-22T15:10:10;2.45;;;0.62;;
75890;SDS011;64571;47.512;19.054;2023-12-22T15:13:13;3.40;;;0.65;;
75890;SDS011;64571;47.512;19.054;2023-12-22T15:16:16;2.53;;;0.73;;
75890;SDS011;64571;47.512;19.054;2023-12-22T15:19:19;1.62;;;0.30;;
75890;SDS011;64571;47.512;19.054;2023-12-22T15:22:22;4.10;;;0.77;;
75890;SDS011;64571;47.512;19.054;2023-12-22T15:25:25;3.15;;;0.50;;
75890;SDS011;64571;47.512;19.054;2023-12-22T15:28:28;2.55;;;0.50;;
75890;SDS011;64571;47.512;19.054;2023-12-22T15:31:31;1.90;;;0.30;;
75890;SDS011;64571;47.512;19.054;2023-12-22T15:34:40;4.20;;;0.80;;
75890;SDS011;64571;47.512;19.054;2023-12-22T15:37:44;1.47;;;0.30;;
75890;SDS011;64571;47.512;19.054;2023-12-22T15:40:46;1.27;;;0.30;;
75890;SDS011;64571;47.512;19.054;2023-12-22T15:43:49;3.12;;;0.43;;
75890;SDS011;64571;47.512;19.054;2023-12-22T15:46:52;3.22;;;0.70;;
75890;SDS011;64571;47.512;19.054;2023-12-22T15:49:54;3.65;;;0.70;;
75890;SDS011;64571;47.512;19.054;2023-12-22T15:52:57;4.60;;;0.40;;
75890;SDS011;64571;47.512;19.054;2023-12-22T15:56:06;2.35;;;0.60;;
75890;SDS011;64571;47.512;19.054;2023-12-22T15:59:11;5.03;;;0.68;;
75890;SDS011;64571;47.512;19.054;2023-12-22T16:02:15;4.60;;;0.70;;
75890;SDS011;64571;47.512;19.054;2023-12-22T16:05:18;5.47;;;1.33;;
75890;SDS011;64571;47.512;19.054;2023-12-22T16:08:20;3.43;;;0.70;;
75890;SDS011;64571;47.512;19.054;2023-12-22T16:11:23;7.28;;;1.17;;
75890;SDS011;64571;47.512;19.054;2023-12-22T16:14:26;4.05;;;0.90;;
75890;SDS011;64571;47.512;19.054;2023-12-22T16:17:28;4.60;;;1.08;;
75890;SDS011;64571;47.512;19.054;2023-12-22T16:20:31;3.28;;;0.80;;
75890;SDS011;64571;47.512;19.054;2023-12-22T16:23:34;5.87;;;1.63;;
75890;SDS011;64571;47.512;19.054;2023-12-22T16:26:36;4.18;;;1.20;;
75890;SDS011;64571;47.512;19.054;2023-12-22T16:29:39;4.28;;;0.77;;
75890;SDS011;64571;47.512;19.054;2023-12-22T16:32:45;4.32;;;0.85;;
75890;SDS011;64571;47.512;19.054;2023-12-22T16:35:48;6.40;;;1.17;;
75890;SDS011;64571;47.512;19.054;2023-12-22T16:38:50;4.10;;;0.77;;
75890;SDS011;64571;47.512;19.054;2023-12-22T16:41:54;2.50;;;0.50;;
75890;SDS011;64571;47.512;19.054;2023-12-22T16:44:56;6.10;;;1.00;;
75890;SDS011;64571;47.512;19.054;2023-12-22T16:48:01;3.92;;;0.90;;
75890;SDS011;64571;47.512;19.054;2023-12-22T16:51:04;3.90;;;0.75;;
75890;SDS011;64571;47.512;19.054;2023-12-22T16:54:07;6.83;;;1.00;;
75890;SDS011;64571;47.512;19.054;2023-12-22T16:57:10;5.82;;;0.90;;
75890;SDS011;64571;47.512;19.054;2023-12-22T17:00:13;4.28;;;1.00;;
75890;SDS011;64571;47.512;19.054;2023-12-22T17:03:17;3.60;;;0.88;;
75890;SDS011;64571;47.512;19.054;2023-12-22T17:06:20;6.62;;;0.95;;
75890;SDS011;64571;47.512;19.054;2023-12-22T17:09:23;5.03;;;0.83;;
75890;SDS011;64571;47.512;19.054;2023-12-22T17:12:27;4.45;;;0.98;;
75890;SDS011;64571;47.512;19.054;2023-12-22T17:15:29;7.12;;;1.58;;
75890;SDS011;64571;47.512;19.054;2023-12-22T17:18:32;4.78;;;1.25;;
75890;SDS011;64571;47.512;19.054;2023-12-22T17:21:35;5.22;;;1.12;;
75890;SDS011;64571;47.512;19.054;2023-12-22T17:24:39;6.50;;;1.70;;
75890;SDS011;64571;47.512;19.054;2023-12-22T17:27:45;5.18;;;1.12;;
75890;SDS011;64571;47.512;19.054;2023-12-22T17:30:49;6.03;;;0.90;;
75890;SDS011;64571;47.512;19.054;2023-12-22T17:33:53;5.53;;;1.55;;
75890;SDS011;64571;47.512;19.054;2023-12-22T17:36:56;4.32;;;0.80;;
75890;SDS011;64571;47.512;19.054;2023-12-22T17:39:58;9.03;;;1.53;;
75890;SDS011;64571;47.512;19.054;2023-12-22T17:43:01;4.97;;;1.10;;
75890;SDS011;64571;47.512;19.054;2023-12-22T17:46:03;5.43;;;1.02;;
75890;SDS011;64571;47.512;19.054;2023-12-22T17:49:06;4.60;;;1.42;;
75890;SDS011;64571;47.512;19.054;2023-12-22T17:52:09;7.12;;;1.05;;
75890;SDS011;64571;47.512;19.054;2023-12-22T17:55:12;4.77;;;1.30;;
75890;SDS011;64571;47.512;19.054;2023-12-22T17:58:14;6.40;;;1.30;;
75890;SDS011;64571;47.512;19.054;2023-12-22T18:01:17;6.82;;;1.20;;
75890;SDS011;64571;47.512;19.054;2023-12-22T18:04:21;4.25;;;1.12;;
75890;SDS011;64571;47.512;19.054;2023-12-22T18:07:24;5.65;;;1.87;;
75890;SDS011;64571;47.512;19.054;2023-12-22T18:10:26;6.67;;;2.10;;
75890;SDS011;64571;47.512;19.054;2023-12-22T18:13:29;6.40;;;1.50;;